Terminal Aerodrome Forecast
Issued by NWS

Home | Current Version | Previous Version | Graphics & Text | Print | Product List | Glossary On
Versions: 1 2 3 4 5 6 7 8 9 10 11 12 13 14 15 16 17 18 19 20 21
355
FTUS43 KABR 241733
TAFPIR
TAF
KPIR 241733Z 2418/2518 32008KT P6SM BKN150
      TEMPO 2418/2420 P6SM -SHRA BKN100
     FM242100 31009KT P6SM SCT250
     FM250200 21005KT P6SM SKC
     FM251500 17011KT P6SM SCT250=

USA.gov is the U.S. government's official web portal to all federal, state and local government web resources and services.